Terminal Aerodrome Forecast
Issued by NWS Springfield, MO

Home | Current Version | Previous Version | Text Only | Print | Product List | Glossary On
Versions: 1 2 3 4 5 6 7 8 9 10 11 12 13 14 15 16 17 18
000
FTUS43 KSGF 040821 AAG
TAFSGF
TAF AMD
KSGF 040821Z 0408/0506 13012KT P6SM OVC010
      TEMPO 0412/0416 3SM -RA OVC007
     FM041600 20005KT P6SM OVC010
     FM041900 27006KT P6SM OVC020
     FM042200 30006KT P6SM SCT070=

USA.gov is the U.S. government's official web portal to all federal, state and local government web resources and services.